Time;durP1;ratioP1;P1;durP2;ratioP2;P2;SDS_P1;SDS_P2;PMS_P1;PMS_P2;Temp;Humidity;BMP_temperature;BMP_pressure;BME280_temperature;BME280_humidity;BME280_pressure;Samples;Min_cycle;Max_cycle;Signal;HPM_P1;HPM_P2
2024/01/25 00:00:05;;;;;;;1.67;0.75;;;13.00;75.70;;;8.54;100.00;96808.00;4920168;28;20038;-59
2024/01/25 00:02:31;;;;;;;2.55;0.80;;;13.00;75.80;;;8.60;100.00;96804.47;4916600;28;20544;-56
2024/01/25 00:04:57;;;;;;;3.22;1.08;;;13.00;75.70;;;8.56;100.00;96800.66;4921317;29;20106;-58
2024/01/25 00:07:22;;;;;;;2.10;0.80;;;13.00;75.70;;;8.56;100.00;96808.59;4924909;28;20016;-59
2024/01/25 00:09:48;;;;;;;4.45;0.93;;;13.00;75.60;;;8.52;100.00;96794.97;4921681;28;20038;-57
2024/01/25 00:12:14;;;;;;;2.88;0.80;;;13.00;75.60;;;8.57;100.00;96789.78;4920448;28;20019;-57
2024/01/25 00:14:40;;;;;;;3.97;0.90;;;13.00;75.70;;;8.58;100.00;96791.41;4919784;28;20035;-59
2024/01/25 00:17:06;;;;;;;2.92;0.80;;;13.00;75.60;;;8.57;100.00;96797.75;4924253;28;20030;-58
2024/01/25 00:19:34;;;;;;;5.25;1.10;;;13.00;75.60;;;8.58;100.00;96790.59;4921029;28;20497;-57
2024/01/25 00:22:00;;;;;;;4.57;0.98;;;13.00;75.70;;;8.57;100.00;96804.91;4919748;29;20054;-59
2024/01/25 00:24:26;;;;;;;6.28;0.98;;;13.00;75.60;;;8.51;100.00;96792.50;4925089;28;20582;-59
2024/01/25 00:26:52;;;;;;;3.92;1.02;;;13.00;75.50;;;8.48;100.00;96796.41;4919794;28;20174;-60
2024/01/25 00:29:18;;;;;;;4.97;0.98;;;13.00;75.60;;;8.48;100.00;96795.63;4920120;28;20469;-57
2024/01/25 00:31:44;;;;;;;4.85;0.93;;;13.00;75.60;;;8.51;100.00;96803.94;4922461;28;20097;-58
2024/01/25 00:34:10;;;;;;;4.45;1.25;;;13.00;75.60;;;8.48;100.00;96799.06;4921785;28;20217;-60
2024/01/25 00:36:36;;;;;;;8.27;1.40;;;12.90;75.60;;;8.45;100.00;96802.16;4921252;28;20027;-57
2024/01/25 00:39:04;;;;;;;5.60;1.15;;;12.90;75.60;;;8.48;100.00;96801.72;4920899;29;20396;-59
2024/01/25 00:41:34;;;;;;;5.72;1.20;;;12.90;76.30;;;8.42;100.00;96789.34;4924125;28;20078;-59
2024/01/25 00:44:01;;;;;;;5.15;1.98;;;12.90;75.60;;;8.45;100.00;96791.56;4922128;29;20749;-61
2024/01/25 00:46:27;;;;;;;6.70;1.48;;;12.90;75.60;;;8.39;100.00;96788.97;4921050;28;20054;-60
2024/01/25 00:48:54;;;;;;;4.38;1.10;;;12.80;75.60;;;8.31;100.00;96792.72;4922422;28;20332;-60
2024/01/25 00:51:23;;;;;;;11.50;1.40;;;12.80;75.60;;;8.35;100.00;96785.91;4918104;29;20093;-59
2024/01/25 00:53:49;;;;;;;8.10;1.27;;;12.80;75.70;;;8.35;100.00;96786.72;4921295;29;20035;-57
2024/01/25 00:56:15;;;;;;;5.40;1.00;;;12.70;75.60;;;8.38;100.00;96792.63;4918246;29;20079;-60
2024/01/25 00:58:42;;;;;;;9.18;1.20;;;12.70;75.60;;;8.41;100.00;96784.25;4923135;29;20027;-57
2024/01/25 01:01:09;;;;;;;7.10;2.60;;;12.80;75.80;;;8.37;100.00;96789.19;4921353;29;20252;-58
2024/01/25 01:03:36;;;;;;;7.95;1.30;;;12.80;75.80;;;8.38;100.00;96788.16;4919279;29;20034;-60
2024/01/25 01:06:03;;;;;;;10.45;1.13;;;12.70;75.70;;;8.31;100.00;96788.22;4925077;29;20034;-58
2024/01/25 01:08:29;;;;;;;8.40;1.05;;;12.70;75.70;;;8.25;100.00;96786.44;4919969;29;20027;-61
2024/01/25 01:10:55;;;;;;;7.82;1.38;;;12.70;75.70;;;8.27;100.00;96788.84;4918814;29;20026;-60
2024/01/25 01:13:21;;;;;;;8.27;1.48;;;12.70;75.70;;;8.29;100.00;96789.47;4924760;28;20422;-59
2024/01/25 01:15:47;;;;;;;8.00;1.30;;;12.70;75.70;;;8.29;100.00;96787.59;4923084;28;20034;-60
2024/01/25 01:18:12;;;;;;;10.13;1.52;;;12.70;75.80;;;8.25;100.00;96788.28;4924358;28;20035;-57
2024/01/25 01:20:38;;;;;;;8.90;1.30;;;12.70;75.80;;;8.26;100.00;96787.25;4922760;28;20035;-59
2024/01/25 01:23:04;;;;;;;9.88;1.70;;;12.70;76.50;;;8.25;100.00;96790.94;4925308;28;20035;-57
2024/01/25 01:25:30;;;;;;;11.48;1.52;;;12.60;75.80;;;8.23;100.00;96787.69;4925724;28;20034;-58
2024/01/25 01:27:56;;;;;;;7.75;1.60;;;12.60;75.70;;;8.23;100.00;96788.50;4927976;28;20035;-58
2024/01/25 01:30:22;;;;;;;6.93;1.10;;;12.60;75.80;;;8.26;100.00;96787.25;4927156;28;20030;-60
2024/01/25 01:32:48;;;;;;;4.65;1.20;;;12.60;75.80;;;8.23;100.00;96785.84;4923545;28;20051;-58
2024/01/25 01:35:14;;;;;;;9.07;1.40;;;12.60;75.80;;;8.25;100.00;96788.28;4929958;28;20556;-60
2024/01/25 01:37:39;;;;;;;7.38;1.58;;;12.60;75.80;;;8.28;100.00;96801.13;4924519;28;20073;-60
2024/01/25 01:40:06;;;;;;;4.32;1.35;;;12.60;75.80;;;8.26;100.00;96797.84;4923497;28;20517;-60
2024/01/25 01:42:33;;;;;;;6.47;1.38;;;12.60;75.80;;;8.26;100.00;96795.19;4926407;28;20023;-60
2024/01/25 01:45:00;;;;;;;6.47;1.23;;;12.60;75.80;;;8.27;100.00;96788.84;4924910;28;20323;-56
2024/01/25 01:47:26;;;;;;;5.60;1.27;;;12.60;75.80;;;8.25;100.00;96781.13;4923645;28;20033;-56
2024/01/25 01:49:51;;;;;;;11.15;1.50;;;12.60;75.80;;;8.18;100.00;96787.50;4925892;28;20334;-59
2024/01/25 01:52:19;;;;;;;6.28;1.10;;;12.60;75.80;;;8.18;100.00;96784.88;4923289;28;20082;-59
2024/01/25 01:54:47;;;;;;;11.70;1.45;;;12.60;75.80;;;8.18;100.00;96777.72;4927676;28;20324;-59
2024/01/25 01:57:15;;;;;;;9.07;1.50;;;12.60;75.90;;;8.18;100.00;96774.25;4926374;28;20422;-55
2024/01/25 01:59:41;;;;;;;9.55;1.35;;;12.50;75.80;;;8.18;100.00;96760.97;4925581;28;20086;-59
2024/01/25 02:02:07;;;;;;;7.28;1.30;;;12.50;75.90;;;8.15;100.00;96756.94;4926198;28;20110;-57
2024/01/25 02:04:33;;;;;;;10.95;1.70;;;12.50;75.90;;;8.14;100.00;96754.50;4929419;28;20077;-60
2024/01/25 02:06:59;;;;;;;6.72;1.63;;;12.50;75.90;;;8.15;100.00;96756.09;4923587;28;20035;-59
2024/01/25 02:09:25;;;;;;;3.95;1.30;;;12.50;76.00;;;8.16;100.00;96753.25;4937368;28;20035;-60
2024/01/25 02:12:02;;;;;;;7.78;1.02;;;12.50;76.00;;;8.20;100.00;96748.31;4926760;28;20166;-56
2024/01/25 02:14:30;;;;;;;4.95;1.15;;;12.50;76.20;;;8.22;100.00;96759.53;4924678;28;20394;-56
2024/01/25 02:16:56;;;;;;;7.55;1.52;;;12.50;76.20;;;8.21;100.00;96756.06;4923324;29;20023;-59
2024/01/25 02:19:22;;;;;;;8.93;1.60;;;12.50;76.10;;;8.19;100.00;96758.13;4922122;28;20125;-57
2024/01/25 02:21:53;;;;;;;8.35;1.30;;;12.50;76.10;;;8.16;100.00;96750.59;4927018;28;20104;-58
2024/01/25 02:24:19;;;;;;;7.30;1.40;;;12.60;76.20;;;8.20;100.00;96748.31;4940406;28;20027;-60
2024/01/25 02:26:45;;;;;;;6.63;1.50;;;12.50;76.10;;;8.19;100.00;96746.69;4923107;28;20077;-56
2024/01/25 02:29:11;;;;;;;8.23;1.50;;;12.60;76.10;;;8.23;100.00;96740.72;4923073;28;20035;-56
2024/01/25 02:31:36;;;;;;;3.30;1.10;;;12.60;76.10;;;8.24;100.00;96749.47;4923560;28;20089;-60
2024/01/25 02:34:02;;;;;;;3.38;1.08;;;12.60;76.10;;;8.23;100.00;96746.00;4923538;28;20039;-60
2024/01/25 02:36:28;;;;;;;5.68;1.50;;;12.60;76.10;;;8.19;100.00;96746.69;4925239;28;20602;-57
2024/01/25 02:38:54;;;;;;;2.42;1.23;;;12.60;76.10;;;8.20;100.00;96749.09;4927812;28;20042;-56
2024/01/25 02:41:20;;;;;;;6.70;1.38;;;12.60;76.10;;;8.22;100.00;96738.28;4923241;28;20102;-57
2024/01/25 02:43:46;;;;;;;6.20;1.42;;;12.60;76.10;;;8.22;100.00;96728.47;4928759;28;20038;-59
2024/01/25 02:46:11;;;;;;;5.97;1.98;;;12.60;76.10;;;8.24;100.00;96726.44;4927327;28;20015;-56
2024/01/25 02:48:37;;;;;;;6.32;1.40;;;12.60;76.10;;;8.26;100.00;96727.00;4922015;28;20122;-59
2024/01/25 02:51:04;;;;;;;3.72;1.05;;;12.60;76.10;;;8.25;100.00;96733.34;4922663;28;20042;-59
2024/01/25 02:53:29;;;;;;;4.22;1.08;;;12.60;76.10;;;8.25;100.00;96733.34;4926157;28;20131;-58
2024/01/25 02:55:55;;;;;;;4.68;1.40;;;12.60;76.20;;;8.26;100.00;96724.34;4924631;28;20469;-60
2024/01/25 02:58:21;;;;;;;4.32;1.40;;;12.60;76.10;;;8.26;100.00;96731.50;4923456;28;20115;-58
2024/01/25 03:00:47;;;;;;;4.93;1.35;;;12.70;76.10;;;8.28;100.00;96722.28;4925733;28;20034;-55
2024/01/25 03:03:13;;;;;;;6.20;1.40;;;12.70;76.10;;;8.29;100.00;96718.59;4924316;28;20033;-56
2024/01/25 03:05:39;;;;;;;4.72;1.30;;;12.70;76.10;;;8.28;100.00;96722.28;4927764;28;20399;-56
2024/01/25 03:08:05;;;;;;;3.67;1.40;;;12.70;76.10;;;8.28;100.00;96718.81;4926603;28;20309;-59
2024/01/25 03:10:32;;;;;;;1.77;1.20;;;12.70;76.10;;;8.29;100.00;96721.25;4918637;28;20506;-56
2024/01/25 03:12:57;;;;;;;1.77;1.33;;;12.70;76.20;;;8.28;100.00;96722.28;4924073;28;20398;-57
2024/01/25 03:15:23;;;;;;;1.70;1.42;;;12.70;76.10;;;8.28;100.00;96716.16;4925257;28;20039;-57
2024/01/25 03:17:49;;;;;;;3.92;1.42;;;12.70;76.10;;;8.29;100.00;96709.81;4923324;28;20027;-56
2024/01/25 03:20:15;;;;;;;2.72;1.23;;;12.70;76.10;;;8.31;100.00;96710.41;4925243;28;20027;-56
2024/01/25 03:22:41;;;;;;;2.38;1.35;;;12.70;76.10;;;8.32;100.00;96704.06;4919447;28;20055;-59
2024/01/25 03:25:08;;;;;;;2.92;1.20;;;12.70;76.10;;;8.33;100.00;96717.09;4918055;29;20034;-57
2024/01/25 03:27:34;;;;;;;1.80;1.25;;;12.80;76.10;;;8.34;100.00;96720.59;4922170;28;20109;-57
2024/01/25 03:30:00;;;;;;;3.72;1.45;;;12.80;76.10;;;8.35;100.00;96711.59;4923801;28;20039;-56
2024/01/25 03:32:26;;;;;;;2.60;1.20;;;12.80;76.10;;;8.36;100.00;96715.84;4923998;28;20038;-59
2024/01/25 03:34:52;;;;;;;2.72;1.10;;;12.80;76.10;;;8.37;100.00;96721.97;4919815;28;20039;-58
2024/01/25 03:37:18;;;;;;;3.50;1.20;;;12.80;76.10;;;8.35;100.00;96719.53;4922567;28;20019;-57
2024/01/25 03:39:44;;;;;;;3.05;1.38;;;12.80;76.10;;;8.38;100.00;96723.59;4923531;28;20031;-58
2024/01/25 03:42:09;;;;;;;1.40;1.10;;;12.80;76.10;;;8.39;100.00;96711.97;4924969;28;20026;-58
2024/01/25 03:44:35;;;;;;;2.45;1.17;;;12.80;76.10;;;8.40;100.00;96708.28;4923986;28;20250;-54
2024/01/25 03:47:01;;;;;;;3.75;1.20;;;12.80;76.20;;;8.38;100.00;96711.16;4922767;28;20027;-55
2024/01/25 03:49:27;;;;;;;2.00;1.05;;;12.80;76.10;;;8.40;100.00;96714.41;4920861;28;20034;-53
2024/01/25 03:54:28;;;;;;;1.55;1.13;;;12.80;76.30;;;8.40;100.00;96713.59;4937943;28;20046;-53
2024/01/25 03:56:54;;;;;;;3.17;1.27;;;12.70;76.10;;;8.41;100.00;96716.03;4940003;28;20038;-56
2024/01/25 03:59:20;;;;;;;2.03;1.30;;;12.80;76.30;;;8.42;100.00;96715.00;4940560;28;20027;-54
2024/01/25 04:01:47;;;;;;;1.30;1.20;;;12.80;76.40;;;8.44;100.00;96714.78;4942118;28;20281;-48
2024/01/25 04:04:17;;;;;;;1.88;1.20;;;12.80;76.40;;;8.40;100.00;96713.59;4922452;29;20050;-52
2024/01/25 04:06:47;;;;;;;1.83;1.10;;;12.80;76.40;;;8.40;100.00;96714.41;4922262;29;20035;-48
2024/01/25 04:09:13;;;;;;;2.22;1.30;;;12.80;76.50;;;8.39;100.00;96717.28;4920146;29;20482;-48
2024/01/25 04:11:40;;;;;;;1.92;1.30;;;12.80;76.40;;;8.37;100.00;96722.81;4924113;29;20031;-51
2024/01/25 04:14:06;;;;;;;2.60;1.60;;;12.80;76.50;;;8.39;100.00;96734.03;4923064;29;20030;-52
2024/01/25 04:16:33;;;;;;;2.70;1.65;;;12.70;77.20;;;8.40;100.00;96726.88;4923449;28;20023;-51
2024/01/25 04:19:00;;;;;;;1.67;1.52;;;12.80;76.50;;;8.35;100.00;96725.66;4923073;29;20475;-51
2024/01/25 04:21:27;;;;;;;2.70;1.58;;;12.70;76.50;;;8.34;100.00;96716.09;4923754;29;20023;-53
2024/01/25 04:23:53;;;;;;;3.38;1.80;;;12.70;76.50;;;8.40;100.00;96719.72;4921890;29;20077;-50
2024/01/25 04:26:19;;;;;;;2.03;1.60;;;12.80;76.60;;;8.40;100.00;96713.59;4922276;29;20473;-52
2024/01/25 04:28:45;;;;;;;3.78;1.50;;;12.70;76.60;;;8.34;100.00;96710.78;4924355;28;20038;-52
2024/01/25 04:31:11;;;;;;;2.90;1.70;;;12.70;76.60;;;8.39;100.00;96711.97;4921888;28;20105;-56
2024/01/25 04:33:40;;;;;;;2.63;1.70;;;12.70;76.60;;;8.43;100.00;96713.13;4923279;29;20504;-52
2024/01/25 04:36:06;;;;;;;3.17;1.85;;;12.80;76.80;;;8.40;100.00;96719.72;4923470;29;20023;-51
2024/01/25 04:38:32;;;;;;;2.80;1.65;;;12.80;76.80;;;8.40;100.00;96719.72;4922592;29;20069;-51
2024/01/25 04:40:58;;;;;;;4.53;2.00;;;12.80;76.70;;;8.40;100.00;96724.22;4921728;29;20018;-55
2024/01/25 04:43:24;;;;;;;3.45;2.08;;;12.80;76.80;;;8.41;100.00;96726.66;4920906;29;20031;-56
2024/01/25 04:45:50;;;;;;;4.40;2.25;;;12.80;76.80;;;8.43;100.00;96723.75;4920441;28;20387;-54
2024/01/25 04:48:16;;;;;;;4.18;2.30;;;12.80;76.80;;;8.43;100.00;96719.28;4922438;29;20030;-50
2024/01/25 04:50:41;;;;;;;3.25;1.90;;;12.80;76.80;;;8.45;100.00;96724.34;4922839;29;20033;-52
2024/01/25 04:53:07;;;;;;;5.43;1.92;;;12.80;76.70;;;8.45;100.00;96722.50;4920330;29;20130;-48
2024/01/25 04:55:33;;;;;;;7.18;2.30;;;12.80;76.80;;;8.43;100.00;96721.94;4921890;29;20118;-51
2024/01/25 04:57:59;;;;;;;3.80;1.95;;;12.80;76.70;;;8.47;100.00;96722.31;4921659;29;20482;-49
2024/01/25 05:00:25;;;;;;;7.10;2.80;;;12.80;76.80;;;8.48;100.00;96724.72;4921603;29;20046;-52
2024/01/25 05:02:50;;;;;;;5.93;2.72;;;12.80;76.80;;;8.46;100.00;96733.94;4920410;29;20114;-50
2024/01/25 05:05:16;;;;;;;8.90;2.65;;;12.80;76.80;;;8.49;100.00;96722.88;4921461;29;20477;-52
2024/01/25 05:07:42;;;;;;;4.82;2.15;;;12.90;76.90;;;8.47;100.00;96731.06;4920415;29;20030;-56
2024/01/25 05:10:08;;;;;;;5.80;2.53;;;12.90;76.80;;;8.51;100.00;96731.44;4921228;29;20032;-49
2024/01/25 05:12:34;;;;;;;5.32;2.55;;;12.90;76.80;;;8.53;100.00;96740.00;4919852;29;20027;-53
2024/01/25 05:15:00;;;;;;;4.80;2.63;;;12.90;77.60;;;8.53;100.00;96742.66;4923142;29;20062;-49
2024/01/25 05:17:26;;;;;;;5.20;1.80;;;12.90;76.80;;;8.51;100.00;96742.88;4920625;29;20034;-50
2024/01/25 05:19:52;;;;;;;5.45;1.95;;;12.90;76.70;;;8.52;100.00;96736.53;4922909;29;20434;-55
2024/01/25 05:22:17;;;;;;;5.30;2.90;;;12.90;76.70;;;8.52;100.00;96741.84;4921315;29;20106;-53
2024/01/25 05:24:43;;;;;;;5.93;3.33;;;13.00;76.80;;;8.54;100.00;96746.94;4921952;29;20031;-52
2024/01/25 05:27:10;;;;;;;6.38;2.50;;;13.00;76.80;;;8.56;100.00;96755.50;4921371;29;20069;-55
2024/01/25 05:29:36;;;;;;;3.42;2.72;;;13.00;76.80;;;8.57;100.00;96757.09;4921338;29;20059;-50
2024/01/25 05:32:02;;;;;;;10.65;3.00;;;13.00;76.80;;;8.56;100.00;96750.19;4919847;29;20518;-56
2024/01/25 05:34:27;;;;;;;3.67;2.00;;;13.00;77.50;;;8.55;100.00;96756.50;4921115;29;20126;-53
2024/01/25 05:36:53;;;;;;;2.20;1.65;;;13.00;76.70;;;8.57;100.00;96762.41;4919921;29;20119;-49
2024/01/25 05:39:20;;;;;;;1.67;1.20;;;13.00;76.80;;;8.57;100.00;96757.91;4921657;29;20194;-48
2024/01/25 05:41:46;;;;;;;1.17;0.63;;;13.00;76.80;;;8.54;100.00;96757.56;4920670;29;20501;-58
2024/01/25 05:44:13;;;;;;;2.53;1.10;;;13.00;76.80;;;8.56;100.00;96756.31;4921062;29;20039;-52
2024/01/25 05:46:39;;;;;;;1.55;0.85;;;13.00;76.80;;;8.59;100.00;96755.06;4920369;29;20057;-52
2024/01/25 05:49:04;;;;;;;1.02;0.90;;;13.00;76.80;;;8.57;100.00;96755.25;4920427;29;20133;-50
2024/01/25 05:51:30;;;;;;;0.68;0.68;;;13.00;76.90;;;8.56;100.00;96769.56;4920866;29;20041;-48
2024/01/25 05:53:56;;;;;;;0.82;0.65;;;13.00;76.90;;;8.57;100.00;96767.72;4919953;29;20145;-51
2024/01/25 05:56:22;;;;;;;0.73;0.68;;;13.00;76.90;;;8.57;100.00;96773.84;4934978;28;20035;-56
2024/01/25 05:58:48;;;;;;;0.77;0.63;;;13.00;76.90;;;8.57;100.00;96768.53;4922851;29;20109;-56
2024/01/25 06:01:14;;;;;;;0.82;0.70;;;13.00;77.00;;;8.60;100.00;96772.59;4923456;29;20046;-51
2024/01/25 06:03:40;;;;;;;0.60;0.60;;;13.00;77.00;;;8.61;100.00;96776.88;4926102;28;20130;-48
2024/01/25 06:06:07;;;;;;;0.60;0.50;;;13.00;77.00;;;8.60;100.00;96779.75;4925688;28;20038;-58
2024/01/25 06:08:34;;;;;;;1.33;0.82;;;13.00;77.10;;;8.62;100.00;96780.31;4927286;29;20050;-52
2024/01/25 06:11:00;;;;;;;0.70;0.65;;;13.00;77.10;;;8.56;100.00;96776.75;4934183;28;20030;-52
2024/01/25 06:13:26;;;;;;;0.65;0.40;;;13.00;77.10;;;8.55;100.00;96783.91;4926572;29;20039;-50
2024/01/25 06:15:52;;;;;;;0.57;0.50;;;13.00;77.10;;;8.55;100.00;96786.56;4932133;29;20249;-48
2024/01/25 06:18:18;;;;;;;0.80;0.47;;;13.00;77.10;;;8.55;100.00;96786.56;4934939;29;20046;-48
2024/01/25 06:20:44;;;;;;;0.63;0.55;;;13.00;77.20;;;8.57;100.00;96783.66;4933936;29;20600;-47
2024/01/25 06:23:10;;;;;;;0.47;0.45;;;13.00;77.20;;;8.54;100.00;96784.91;4931307;29;20032;-48
2024/01/25 06:25:36;;;;;;;0.95;0.80;;;12.90;77.20;;;8.53;100.00;96785.97;4928166;29;20058;-48
2024/01/25 06:28:03;;;;;;;0.50;0.50;;;12.90;77.30;;;8.56;100.00;96790.81;4931018;29;20687;-49
2024/01/25 06:30:29;;;;;;;0.60;0.60;;;12.90;77.30;;;8.57;100.00;96789.78;4931080;28;20573;-49
2024/01/25 06:32:55;;;;;;;1.35;0.75;;;12.90;77.40;;;8.57;100.00;96794.28;4932136;29;20401;-51
2024/01/25 06:35:21;;;;;;;0.50;0.50;;;12.90;77.40;;;8.57;100.00;96796.94;4934226;28;20489;-51
2024/01/25 06:37:47;;;;;;;0.82;0.60;;;12.90;77.40;;;8.60;100.00;96799.16;4939870;28;20031;-50
2024/01/25 06:40:13;;;;;;;0.40;0.40;;;12.90;77.50;;;8.62;100.00;96801.56;4928374;29;20023;-50
2024/01/25 06:42:39;;;;;;;0.52;0.47;;;12.90;77.50;;;8.59;100.00;96808.16;4934447;29;20052;-50
2024/01/25 06:45:05;;;;;;;4.68;0.80;;;12.90;77.50;;;8.60;100.00;96803.66;4933673;29;20069;-52
2024/01/25 06:47:31;;;;;;;3.08;0.70;;;12.90;77.50;;;8.60;100.00;96804.47;4933887;29;20050;-52
2024/01/25 06:49:57;;;;;;;1.00;0.70;;;13.00;77.60;;;8.61;100.00;96807.94;4934115;29;20447;-49
2024/01/25 06:52:23;;;;;;;4.35;0.70;;;13.00;77.60;;;8.61;100.00;96821.22;4947815;28;20052;-49
2024/01/25 06:54:49;;;;;;;2.47;0.60;;;12.90;77.50;;;8.62;100.00;96822.81;4931896;28;20031;-50
2024/01/25 06:57:14;;;;;;;5.20;0.77;;;12.90;77.50;;;8.62;100.00;96828.97;4933861;29;20046;-50
2024/01/25 06:59:40;;;;;;;1.17;0.80;;;13.00;77.60;;;8.62;100.00;96828.97;4945289;28;20035;-48
2024/01/25 07:02:06;;;;;;;1.90;0.88;;;13.00;77.60;;;8.65;100.00;96827.69;4931230;29;20031;-48
2024/01/25 07:04:32;;;;;;;3.03;1.42;;;12.90;77.60;;;8.66;100.00;96827.47;4933517;29;20039;-49
2024/01/25 07:06:59;;;;;;;1.85;0.73;;;13.00;77.70;;;8.66;100.00;96832.81;4934403;29;20027;-48
2024/01/25 07:09:26;;;;;;;4.43;0.80;;;13.00;77.70;;;8.64;100.00;96829.53;4931286;29;20023;-49
2024/01/25 07:11:51;;;;;;;3.70;1.00;;;13.00;77.70;;;8.63;100.00;96832.44;4934153;29;20490;-51
2024/01/25 07:14:17;;;;;;;4.28;1.00;;;13.00;77.60;;;8.65;100.00;96836.50;4933930;29;20035;-52
2024/01/25 07:16:43;;;;;;;18.52;1.92;;;13.00;77.70;;;8.61;100.00;96827.31;4933043;29;20508;-48
2024/01/25 07:19:09;;;;;;;0.80;0.65;;;13.00;77.60;;;8.58;100.00;96825.91;4932747;29;20031;-48
2024/01/25 07:21:35;;;;;;;4.32;0.60;;;12.90;77.50;;;8.55;100.00;96826.41;4932923;29;20118;-49
2024/01/25 07:24:04;;;;;;;2.55;0.73;;;12.90;77.60;;;8.57;100.00;96826.97;4934006;29;20472;-48
2024/01/25 07:26:30;;;;;;;2.88;0.60;;;12.90;77.60;;;8.56;100.00;96828.00;4933395;29;20023;-52
2024/01/25 07:28:59;;;;;;;1.17;0.90;;;12.90;77.60;;;8.56;100.00;96828.00;4933628;29;20478;-51
2024/01/25 07:31:28;;;;;;;6.70;1.63;;;12.90;78.40;;;8.57;100.00;96816.34;4932572;29;20394;-51
2024/01/25 07:33:55;;;;;;;1.02;0.93;;;12.90;77.60;;;8.53;100.00;96823.13;4923781;29;20028;-51
2024/01/25 07:36:21;;;;;;;1.40;1.00;;;12.90;77.60;;;8.58;100.00;96815.28;4928097;29;20032;-51
2024/01/25 07:38:48;;;;;;;1.10;1.00;;;12.90;77.60;;;8.62;100.00;96817.50;4928934;28;20024;-53
2024/01/25 07:41:15;;;;;;;5.50;1.30;;;12.90;77.70;;;8.62;100.00;96823.66;4927632;29;20028;-54
2024/01/25 07:43:42;;;;;;;4.10;1.60;;;13.00;77.80;;;8.63;100.00;96821.81;4922585;29;20040;-53
2024/01/25 07:46:10;;;;;;;5.55;2.00;;;13.00;77.70;;;8.66;100.00;96824.03;4927818;29;20078;-53
2024/01/25 07:48:36;;;;;;;3.58;1.77;;;13.00;77.70;;;8.65;100.00;96823.22;4922246;29;20034;-52
2024/01/25 07:51:02;;;;;;;9.70;2.05;;;13.00;77.60;;;8.68;100.00;96821.94;4937523;28;20643;-51
2024/01/25 07:53:28;;;;;;;3.85;1.83;;;13.10;77.70;;;8.71;100.00;96830.31;4928401;29;20130;-53
2024/01/25 07:55:54;;;;;;;3.28;2.28;;;13.10;77.70;;;8.73;100.00;96825.56;4923071;29;20110;-54
2024/01/25 07:58:20;;;;;;;5.75;2.28;;;13.10;77.70;;;8.75;100.00;96823.50;4924854;29;20374;-56
2024/01/25 08:00:46;;;;;;;4.63;2.00;;;13.10;77.60;;;8.78;100.00;96816.94;4918185;28;20032;-48
2024/01/25 08:03:12;;;;;;;3.70;2.30;;;13.20;77.70;;;8.82;100.00;96815.44;4930654;29;20022;-51
2024/01/25 08:05:37;;;;;;;5.32;2.70;;;13.20;77.60;;;8.84;100.00;96816.03;4923595;29;20094;-50
2024/01/25 08:08:04;;;;;;;4.68;2.53;;;13.20;77.60;;;8.86;100.00;96805.19;4924539;29;20499;-48
2024/01/25 08:10:29;;;;;;;6.40;3.03;;;13.30;77.60;;;8.89;100.00;96812.72;4930526;29;20037;-52
2024/01/25 08:12:55;;;;;;;14.52;3.88;;;13.30;77.50;;;8.87;100.00;96812.09;4928772;29;20035;-52
2024/01/25 08:15:21;;;;;;;17.13;4.30;;;13.30;77.50;;;8.93;100.00;96816.53;4930255;28;20050;-52
2024/01/25 08:17:47;;;;;;;12.05;5.43;;;13.30;77.50;;;8.93;100.00;96825.34;4942726;28;20034;-53
2024/01/25 08:20:13;;;;;;;11.35;4.68;;;13.40;77.40;;;8.96;100.00;96822.22;4931764;29;20062;-51
2024/01/25 08:22:40;;;;;;;14.07;5.03;;;13.40;77.40;;;8.99;100.00;96835.06;4931830;29;20034;-54
2024/01/25 08:25:07;;;;;;;11.65;4.88;;;13.40;77.40;;;8.98;100.00;96840.59;4943875;28;20038;-50
2024/01/25 08:27:33;;;;;;;89.65;8.40;;;13.50;77.40;;;9.01;100.00;96837.50;4927623;28;20027;-53
2024/01/25 08:29:59;;;;;;;23.58;6.30;;;13.50;77.30;;;8.99;100.00;96835.06;4932020;29;20389;-50
2024/01/25 08:32:25;;;;;;;13.82;5.43;;;13.50;77.30;;;9.02;100.00;96834.63;4929280;29;20019;-51
2024/01/25 08:34:51;;;;;;;12.20;5.97;;;13.50;77.30;;;9.00;100.00;96842.00;4932372;29;20593;-53
2024/01/25 08:37:17;;;;;;;15.40;5.95;;;13.60;77.20;;;9.03;100.00;96840.75;4932704;29;20030;-50
2024/01/25 08:39:45;;;;;;;19.05;5.88;;;13.50;77.10;;;9.06;100.00;96850.09;4931311;29;20058;-48
2024/01/25 08:42:12;;;;;;;13.63;6.05;;;13.60;77.10;;;9.07;100.00;96849.09;4932315;29;20026;-52
2024/01/25 08:44:39;;;;;;;12.98;5.05;;;13.60;77.10;;;9.07;100.00;96849.88;4927651;29;20027;-49
2024/01/25 08:47:05;;;;;;;8.25;4.13;;;13.60;77.00;;;9.04;100.00;96850.34;4932148;29;20078;-49
2024/01/25 08:49:31;;;;;;;9.50;3.50;;;13.60;76.90;;;9.02;100.00;96847.91;4932193;29;20082;-52
2024/01/25 08:51:57;;;;;;;6.57;3.38;;;13.60;76.90;;;9.05;100.00;96851.94;4930371;29;20015;-48
2024/01/25 08:54:23;;;;;;;6.53;3.35;;;13.60;76.90;;;9.07;100.00;96849.88;4929458;29;20051;-49
2024/01/25 08:56:48;;;;;;;6.93;2.85;;;13.70;77.00;;;9.12;100.00;96838.56;4929643;29;20437;-48
2024/01/25 08:59:14;;;;;;;4.20;2.92;;;13.70;76.90;;;9.15;100.00;96838.97;4931681;29;20031;-50
2024/01/25 09:01:40;;;;;;;5.45;2.75;;;13.70;76.90;;;9.20;100.00;96841.75;4943011;28;20024;-52
2024/01/25 09:04:06;;;;;;;3.83;2.20;;;13.80;77.00;;;9.27;100.00;96847.81;4932340;29;20540;-49
2024/01/25 09:06:33;;;;;;;4.80;2.67;;;13.80;76.90;;;9.28;100.00;96840.63;4932854;29;20035;-48
2024/01/25 09:08:59;;;;;;;3.83;2.22;;;13.90;76.80;;;9.32;100.00;96838.31;4945560;29;20023;-51
2024/01/25 09:11:25;;;;;;;5.53;2.50;;;14.00;76.80;;;9.38;100.00;96848.06;4939454;29;20058;-49
2024/01/25 09:13:51;;;;;;;3.10;2.10;;;14.00;76.70;;;9.42;100.00;96854.53;4932107;29;20143;-52
2024/01/25 09:16:16;;;;;;;2.70;1.70;;;14.10;76.70;;;9.39;100.00;96855.81;4930480;29;20019;-51
2024/01/25 09:18:42;;;;;;;2.33;1.45;;;14.10;76.60;;;9.39;100.00;96855.81;4934071;29;20078;-49
2024/01/25 09:21:08;;;;;;;2.85;1.83;;;14.10;76.40;;;9.48;100.00;96857.09;4931082;29;20023;-48
2024/01/25 09:23:34;;;;;;;2.75;1.85;;;14.20;76.50;;;9.47;100.00;96863.47;4932113;29;20027;-48
2024/01/25 09:26:00;;;;;;;1.80;1.30;;;14.20;76.30;;;9.52;100.00;96862.78;4931227;29;20045;-49
2024/01/25 09:28:26;;;;;;;2.20;1.50;;;14.20;76.30;;;9.49;100.00;96864.06;4931000;29;20490;-51
2024/01/25 09:30:52;;;;;;;1.88;1.23;;;14.30;76.30;;;9.53;100.00;96861.75;4931150;29;20082;-53
2024/01/25 09:33:18;;;;;;;3.25;1.30;;;14.30;76.20;;;9.54;100.00;96862.56;4935072;28;20454;-52
2024/01/25 09:35:46;;;;;;;1.60;1.10;;;14.40;76.20;;;9.63;100.00;96866.53;4933298;29;20061;-50
2024/01/25 09:38:13;;;;;;;1.30;1.08;;;14.50;76.20;;;9.63;100.00;96864.69;4936954;28;20023;-53
2024/01/25 09:40:39;;;;;;;1.08;0.90;;;14.50;76.00;;;9.66;100.00;96876.72;4934622;29;20027;-50
2024/01/25 09:43:05;;;;;;;1.83;1.05;;;14.60;75.90;;;9.70;100.00;96864.59;4934725;29;20030;-48
2024/01/25 09:45:31;;;;;;;1.27;0.93;;;14.60;75.90;;;9.69;100.00;96874.41;4934267;29;20038;-51
2024/01/25 09:47:57;;;;;;;1.95;0.90;;;14.60;75.80;;;9.69;100.00;96879.75;4935150;29;20445;-49
2024/01/25 09:50:23;;;;;;;2.05;1.10;;;14.70;75.70;;;9.71;100.00;96879.50;4935075;29;20062;-52
2024/01/25 09:53:00;;;;;;;1.25;0.93;;;14.60;75.60;;;9.70;100.00;96870.72;4934293;29;20442;-50
2024/01/25 09:55:27;;;;;;;2.40;1.10;;;14.60;75.60;;;9.72;100.00;96870.50;4932303;29;20031;-54
2024/01/25 09:57:57;;;;;;;2.08;1.00;;;14.60;76.40;;;9.74;100.00;96873.72;4933780;29;20378;-54
2024/01/25 10:00:23;;;;;;;4.70;2.10;;;14.70;75.60;;;9.76;100.00;96876.16;4934740;29;20101;-58
2024/01/25 10:02:50;;;;;;;0.77;0.70;;;14.70;75.50;;;9.79;100.00;96871.19;4933993;29;20962;-56
2024/01/25 10:05:19;;;;;;;1.27;1.00;;;14.80;75.50;;;9.85;100.00;96877.47;4934567;29;20027;-54
2024/01/25 10:07:47;;;;;;;1.00;0.90;;;14.80;75.50;;;9.91;100.00;96884.53;4935375;29;20046;-55
2024/01/25 10:10:14;;;;;;;2.25;1.38;;;14.80;75.40;;;9.96;100.00;96876.66;4933785;29;20031;-56
2024/01/25 10:12:43;;;;;;;0.73;0.70;;;14.90;75.50;;;10.03;100.00;96880.06;4946281;28;20058;-54
2024/01/25 10:15:10;;;;;;;2.40;1.20;;;15.00;75.50;;;10.08;100.00;96888.13;4931956;29;20059;-54